createdAt,value
2023-08-09T00:01:02.021Z,5.50
2023-08-09T00:03:29.788Z,6.15
2023-08-09T00:05:57.123Z,5.45
2023-08-09T00:08:24.408Z,5.68
2023-08-09T00:10:52.141Z,6.47
2023-08-09T00:13:19.507Z,6.15
2023-08-09T00:15:46.945Z,5.60
2023-08-09T00:18:15.142Z,5.80
2023-08-09T00:20:42.582Z,6.43
2023-08-09T00:23:10.111Z,5.78
2023-08-09T00:25:39.305Z,6.47
2023-08-09T00:28:06.834Z,6.10
2023-08-09T00:30:34.233Z,6.10
2023-08-09T00:33:02.193Z,5.93
2023-08-09T00:35:29.544Z,8.20
2023-08-09T00:37:57.276Z,6.60
2023-08-09T00:40:25.600Z,7.43
2023-08-09T00:42:53.299Z,8.25
2023-08-09T00:45:20.905Z,8.25
2023-08-09T00:47:48.853Z,7.07
2023-08-09T00:50:16.731Z,8.88
2023-08-09T00:52:46.088Z,8.00
2023-08-09T00:55:14.212Z,7.13
2023-08-09T00:57:42.021Z,9.48
2023-08-09T01:00:10.736Z,8.23
2023-08-09T01:02:38.621Z,8.48
2023-08-09T01:05:07.200Z,8.77
2023-08-09T01:08:02.651Z,8.00
2023-08-09T01:11:33.736Z,10.82
2023-08-09T01:14:06.365Z,8.77
2023-08-09T01:16:37.598Z,7.60
2023-08-09T01:19:42.495Z,9.82
2023-08-09T01:22:27.172Z,8.80
2023-08-09T01:24:57.750Z,8.50
2023-08-09T01:27:25.213Z,8.05
2023-08-09T01:29:52.817Z,7.30
2023-08-09T01:32:20.130Z,9.80
2023-08-09T01:34:47.922Z,9.38
2023-08-09T01:37:40.246Z,12.05
2023-08-09T01:40:13.272Z,9.80
2023-08-09T01:42:42.055Z,9.05
2023-08-09T01:45:13.399Z,8.20
2023-08-09T01:47:43.437Z,7.10
2023-08-09T01:50:25.412Z,7.93
2023-08-09T01:52:57.560Z,8.20
2023-08-09T01:55:27.873Z,8.88
2023-08-09T01:57:56.384Z,9.05
2023-08-09T02:00:24.110Z,8.90
2023-08-09T02:02:54.387Z,8.70
2023-08-09T02:05:24.072Z,9.15
2023-08-09T02:07:51.697Z,9.18
2023-08-09T02:10:19.612Z,6.55
2023-08-09T02:12:51.045Z,9.38
2023-08-09T02:15:20.088Z,7.80
2023-08-09T02:17:47.956Z,10.02
2023-08-09T02:20:15.471Z,8.68
2023-08-09T02:22:44.113Z,10.48
2023-08-09T02:25:11.864Z,10.63
2023-08-09T02:27:41.069Z,8.38
2023-08-09T02:30:10.891Z,9.02
2023-08-09T02:32:39.085Z,11.48
2023-08-09T02:35:07.853Z,11.25
2023-08-09T02:37:35.646Z,9.85
2023-08-09T02:40:05.698Z,10.05
2023-08-09T02:42:33.092Z,13.25
2023-08-09T02:45:00.617Z,12.25
2023-08-09T02:47:28.035Z,9.40
2023-08-09T02:49:55.494Z,9.38
2023-08-09T02:52:24.681Z,13.93
2023-08-09T02:54:52.410Z,11.85
2023-08-09T02:57:19.800Z,12.05
2023-08-09T02:59:48.109Z,11.75
2023-08-09T03:02:16.408Z,11.32
2023-08-09T03:04:43.785Z,11.52
2023-08-09T03:07:11.672Z,12.70
2023-08-09T03:09:39.877Z,15.27
2023-08-09T03:12:08.161Z,14.32
2023-08-09T03:14:35.589Z,10.63
2023-08-09T03:17:03.327Z,12.98
2023-08-09T03:19:30.881Z,13.68
2023-08-09T03:21:58.533Z,14.20
2023-08-09T03:24:26.113Z,16.55
2023-08-09T03:26:53.536Z,16.70
2023-08-09T03:29:21.369Z,18.73
2023-08-09T03:31:49.806Z,33.40
2023-08-09T03:34:19.748Z,192.70
2023-08-09T03:36:47.193Z,182.10
2023-08-09T03:39:14.582Z,123.95
2023-08-09T03:41:42.975Z,99.18
2023-08-09T03:44:11.939Z,81.00
2023-08-09T03:46:39.437Z,65.18
2023-08-09T03:49:09.864Z,91.97
2023-08-09T03:51:39.737Z,40.83
2023-08-09T03:54:07.767Z,29.63
2023-08-09T03:56:35.107Z,21.42
2023-08-09T03:59:03.045Z,21.55
2023-08-09T04:01:30.469Z,19.52
2023-08-09T04:03:58.170Z,13.68
2023-08-09T04:06:25.556Z,18.35
2023-08-09T04:08:53.657Z,15.32
2023-08-09T04:11:20.952Z,14.98
2023-08-09T04:13:48.646Z,11.98
2023-08-09T04:16:18.234Z,15.07
2023-08-09T04:18:46.867Z,13.20
2023-08-09T04:21:14.146Z,13.48
2023-08-09T04:23:41.478Z,16.92
2023-08-09T04:26:08.811Z,15.48
2023-08-09T04:28:36.252Z,15.93
2023-08-09T04:31:05.047Z,14.13
2023-08-09T04:33:33.458Z,12.50
2023-08-09T04:36:00.989Z,15.57
2023-08-09T04:38:28.456Z,17.25
2023-08-09T04:40:55.844Z,16.10
2023-08-09T04:43:23.231Z,16.52
2023-08-09T04:45:51.640Z,14.38
2023-08-09T04:48:19.327Z,15.95
2023-08-09T04:50:48.803Z,16.30
2023-08-09T04:53:16.163Z,14.82
2023-08-09T04:55:43.595Z,12.85
2023-08-09T04:58:10.973Z,14.43
2023-08-09T05:00:38.563Z,13.82
2023-08-09T05:03:06.375Z,12.55
2023-08-09T05:05:33.767Z,13.73
2023-08-09T05:08:01.169Z,14.55
2023-08-09T05:10:28.719Z,16.00
2023-08-09T05:12:56.572Z,13.93
2023-08-09T05:15:23.944Z,13.38
2023-08-09T05:17:51.342Z,12.65
2023-08-09T05:20:19.177Z,17.02
2023-08-09T05:22:46.780Z,16.52
2023-08-09T05:25:14.203Z,13.60
2023-08-09T05:27:41.920Z,15.32
2023-08-09T05:30:10.192Z,16.80
2023-08-09T05:32:37.631Z,13.05
2023-08-09T05:35:05.820Z,16.02
2023-08-09T05:37:33.217Z,14.35
2023-08-09T05:40:00.838Z,15.73
2023-08-09T05:42:28.263Z,15.80
2023-08-09T05:44:55.807Z,18.23
2023-08-09T05:47:23.301Z,16.25
2023-08-09T05:49:50.656Z,18.38
2023-08-09T05:52:17.968Z,21.33
2023-08-09T05:54:45.404Z,20.55
2023-08-09T05:57:12.736Z,26.75
2023-08-09T05:59:40.752Z,26.13
2023-08-09T06:02:08.576Z,26.48
2023-08-09T06:04:36.264Z,24.30
2023-08-09T06:07:05.149Z,25.80
2023-08-09T06:12:17.624Z,28.45
2023-08-09T06:14:45.003Z,26.77
2023-08-09T06:17:12.675Z,28.20
2023-08-09T06:19:40.231Z,28.88
2023-08-09T06:22:07.580Z,27.33
2023-08-09T06:24:34.996Z,23.17
2023-08-09T06:27:02.595Z,28.60
2023-08-09T06:29:30.202Z,31.45
2023-08-09T06:31:57.816Z,30.48
2023-08-09T06:34:25.374Z,32.00
2023-08-09T06:36:52.720Z,30.20
2023-08-09T06:39:20.531Z,31.42
2023-08-09T06:41:50.624Z,35.97
2023-08-09T06:44:17.988Z,33.58
2023-08-09T06:46:45.579Z,30.25
2023-08-09T06:49:13.221Z,41.15
2023-08-09T06:51:40.626Z,40.05
2023-08-09T06:54:08.157Z,31.05
2023-08-09T06:56:36.771Z,30.65
2023-08-09T06:59:04.508Z,28.70
2023-08-09T07:01:33.164Z,32.30
2023-08-09T07:04:02.478Z,26.83
2023-08-09T07:06:30.097Z,31.13
2023-08-09T07:08:57.661Z,33.92
2023-08-09T07:11:25.068Z,30.10
2023-08-09T07:13:52.501Z,32.88
2023-08-09T07:16:20.026Z,25.63
2023-08-09T07:18:47.469Z,25.85
2023-08-09T07:21:14.868Z,27.20
2023-08-09T07:23:56.693Z,29.00
2023-08-09T07:26:26.798Z,28.83
2023-08-09T07:28:54.375Z,24.98
2023-08-09T07:31:24.852Z,26.95
2023-08-09T07:33:52.596Z,26.58
2023-08-09T07:36:20.549Z,23.88
2023-08-09T07:38:48.167Z,27.00
2023-08-09T07:41:15.769Z,31.83
2023-08-09T07:43:43.202Z,23.08
2023-08-09T07:46:11.933Z,23.45
2023-08-09T07:48:39.429Z,23.15
2023-08-09T07:51:07.543Z,27.17
2023-08-09T07:53:34.850Z,28.85
2023-08-09T07:56:02.208Z,22.73
2023-08-09T07:58:29.560Z,19.40
2023-08-09T08:00:57.020Z,19.05
2023-08-09T08:03:24.777Z,18.60
2023-08-09T08:05:52.572Z,20.90
2023-08-09T08:08:20.244Z,21.20
2023-08-09T08:10:48.372Z,22.23
2023-08-09T08:13:15.814Z,24.02
2023-08-09T08:15:43.419Z,19.95
2023-08-09T08:18:10.795Z,16.27
2023-08-09T08:20:38.350Z,16.35
2023-08-09T08:23:07.385Z,14.98
2023-08-09T08:25:35.359Z,16.77
2023-08-09T08:28:03.074Z,16.50
2023-08-09T08:30:30.508Z,12.52
2023-08-09T08:32:58.505Z,13.63
2023-08-09T08:35:34.829Z,13.77
2023-08-09T08:38:03.070Z,12.93
2023-08-09T08:40:32.872Z,12.00
2023-08-09T08:43:00.548Z,10.68
2023-08-09T08:45:28.189Z,10.57
2023-08-09T08:47:55.642Z,10.43
2023-08-09T08:50:26.501Z,9.93
2023-08-09T08:52:55.776Z,10.00
2023-08-09T08:55:25.249Z,12.65
2023-08-09T08:57:54.273Z,10.93
2023-08-09T09:00:27.817Z,11.95
2023-08-09T09:03:00.270Z,10.75
2023-08-09T09:05:28.051Z,9.10
2023-08-09T09:07:58.286Z,8.65
2023-08-09T09:10:27.228Z,11.18
2023-08-09T09:12:57.205Z,10.02
2023-08-09T09:15:28.364Z,9.07
2023-08-09T09:17:56.441Z,10.40
2023-08-09T09:20:34.973Z,9.60
2023-08-09T09:23:02.657Z,8.60
2023-08-09T09:25:30.425Z,7.35
2023-08-09T09:27:59.925Z,5.75
2023-08-09T09:30:33.268Z,7.38
2023-08-09T09:33:05.084Z,6.18
2023-08-09T09:35:34.666Z,7.95
2023-08-09T09:38:04.704Z,5.88
2023-08-09T09:40:36.944Z,6.18
2023-08-09T09:43:07.186Z,6.10
2023-08-09T09:45:38.359Z,5.88
2023-08-09T09:48:18.197Z,6.88
2023-08-09T09:50:46.483Z,9.82
2023-08-09T09:53:16.475Z,5.65
2023-08-09T09:55:46.413Z,5.97
2023-08-09T09:58:14.347Z,5.82
2023-08-09T10:00:50.568Z,5.70
2023-08-09T10:03:26.164Z,7.13
2023-08-09T10:05:59.083Z,7.95
2023-08-09T10:08:30.936Z,10.30
2023-08-09T10:11:00.337Z,10.25
2023-08-09T10:13:31.507Z,9.18
2023-08-09T10:16:06.664Z,9.77
2023-08-09T10:18:51.741Z,9.43
2023-08-09T10:21:21.017Z,9.45
2023-08-09T10:24:11.796Z,7.35
2023-08-09T10:26:47.329Z,8.68
2023-08-09T10:29:25.033Z,6.53
2023-08-09T10:32:03.992Z,9.23
2023-08-09T10:34:44.393Z,10.50
2023-08-09T10:37:24.377Z,10.55
2023-08-09T10:40:19.383Z,12.93
2023-08-09T10:42:51.835Z,12.23
2023-08-09T10:45:19.209Z,12.32
2023-08-09T10:47:47.933Z,11.05
2023-08-09T10:50:16.084Z,13.70
2023-08-09T10:52:50.307Z,13.45
2023-08-09T10:55:21.225Z,12.35
2023-08-09T10:57:51.813Z,10.70
2023-08-09T11:00:22.668Z,11.85
2023-08-09T11:02:54.542Z,12.88
2023-08-09T11:05:23.943Z,11.50
2023-08-09T11:07:57.232Z,10.77
2023-08-09T11:10:37.289Z,12.00
2023-08-09T11:13:12.387Z,11.82
2023-08-09T11:15:47.761Z,12.50
2023-08-09T11:18:17.260Z,11.55
2023-08-09T11:20:46.310Z,11.88
2023-08-09T11:23:14.372Z,11.25
2023-08-09T11:25:42.331Z,7.93
2023-08-09T11:28:14.789Z,8.25
2023-08-09T11:30:43.631Z,8.93
2023-08-09T11:33:13.497Z,7.93
2023-08-09T11:35:47.334Z,10.18
2023-08-09T11:38:18.191Z,9.13
2023-08-09T11:40:53.466Z,8.15
2023-08-09T11:43:23.509Z,8.38
2023-08-09T11:45:58.438Z,11.02
2023-08-09T11:48:33.008Z,8.77
2023-08-09T11:51:16.792Z,9.50
2023-08-09T11:53:49.857Z,8.32
2023-08-09T11:56:27.047Z,7.47
2023-08-09T11:58:56.657Z,6.18
2023-08-09T12:01:35.157Z,6.38
2023-08-09T12:04:16.729Z,6.85
2023-08-09T12:06:53.111Z,7.50
2023-08-09T12:09:41.649Z,6.05
2023-08-09T12:12:19.237Z,6.13
2023-08-09T12:14:50.677Z,7.68
2023-08-09T12:17:29.945Z,6.70
2023-08-09T12:20:08.215Z,6.60
2023-08-09T12:22:35.696Z,4.85
2023-08-09T12:25:04.495Z,7.07
2023-08-09T12:27:32.974Z,6.72
2023-08-09T12:30:00.592Z,6.03
2023-08-09T12:32:31.025Z,5.07
2023-08-09T12:34:58.458Z,4.90
2023-08-09T12:37:26.301Z,5.65
2023-08-09T12:39:53.724Z,4.95
2023-08-09T12:42:21.751Z,4.28
2023-08-09T12:44:49.164Z,4.40
2023-08-09T12:47:16.635Z,7.85
2023-08-09T12:49:44.047Z,3.33
2023-08-09T12:52:11.492Z,4.70
2023-08-09T12:54:38.860Z,6.57
2023-08-09T12:57:06.483Z,7.82
2023-08-09T12:59:33.956Z,6.90
2023-08-09T13:02:02.611Z,3.30
2023-08-09T13:04:31.362Z,6.45
2023-08-09T13:06:59.755Z,5.13
2023-08-09T13:09:29.002Z,4.95
2023-08-09T13:12:11.713Z,4.82
2023-08-09T13:14:39.796Z,4.95
2023-08-09T13:17:08.285Z,4.13
2023-08-09T13:19:38.418Z,4.05
2023-08-09T13:22:07.414Z,4.85
2023-08-09T13:24:35.054Z,5.10
2023-08-09T13:27:04.257Z,5.30
2023-08-09T13:29:31.834Z,4.68
2023-08-09T13:32:01.732Z,3.83
2023-08-09T13:34:30.266Z,3.22
2023-08-09T13:36:57.723Z,6.43
2023-08-09T13:39:25.799Z,5.07
2023-08-09T13:41:53.269Z,3.80
2023-08-09T13:44:20.685Z,3.35
2023-08-09T13:46:48.028Z,3.78
2023-08-09T13:49:15.777Z,4.68
2023-08-09T13:51:43.204Z,3.08
2023-08-09T13:54:10.613Z,3.33
2023-08-09T13:56:37.969Z,3.50
2023-08-09T13:59:05.529Z,3.47
2023-08-09T14:01:34.890Z,3.60
2023-08-09T14:04:02.343Z,4.05
2023-08-09T14:06:31.083Z,3.88
2023-08-09T14:08:59.748Z,4.85
2023-08-09T14:11:27.315Z,8.02
2023-08-09T14:13:54.768Z,4.07
2023-08-09T14:16:22.174Z,4.68
2023-08-09T14:18:49.956Z,3.33
2023-08-09T14:21:17.451Z,4.22
2023-08-09T14:23:45.288Z,5.45
2023-08-09T14:26:12.863Z,2.78
2023-08-09T14:28:40.328Z,2.90
2023-08-09T14:31:07.827Z,2.78
2023-08-09T14:33:35.348Z,3.00
2023-08-09T14:36:02.777Z,4.78
2023-08-09T14:38:30.162Z,3.85
2023-08-09T14:40:57.522Z,3.53
2023-08-09T14:43:25.339Z,4.18
2023-08-09T14:45:52.959Z,5.13
2023-08-09T14:48:20.478Z,3.80
2023-08-09T14:50:47.850Z,6.10
2023-08-09T14:53:15.444Z,4.20
2023-08-09T14:55:43.591Z,4.65
2023-08-09T14:58:11.733Z,3.70
2023-08-09T15:00:40.337Z,4.00
2023-08-09T15:03:07.982Z,3.17
2023-08-09T15:05:36.121Z,3.17
2023-08-09T15:08:03.736Z,4.85
2023-08-09T15:10:34.457Z,2.88
2023-08-09T15:13:04.348Z,3.50
2023-08-09T15:15:32.294Z,3.45
2023-08-09T15:17:59.820Z,6.15
2023-08-09T15:20:27.428Z,2.53
2023-08-09T15:22:55.026Z,3.45
2023-08-09T15:25:25.511Z,4.47
2023-08-09T15:27:54.630Z,3.95
2023-08-09T15:30:22.319Z,8.02
2023-08-09T15:32:55.638Z,5.65
2023-08-09T15:35:23.654Z,6.35
2023-08-09T15:37:52.343Z,5.72
2023-08-09T15:40:20.754Z,5.47
2023-08-09T15:42:48.213Z,5.03
2023-08-09T15:45:15.775Z,8.15
2023-08-09T15:47:44.046Z,8.40
2023-08-09T15:50:13.169Z,6.00
2023-08-09T15:52:43.207Z,7.05
2023-08-09T15:55:10.959Z,5.85
2023-08-09T15:57:38.938Z,4.25
2023-08-09T16:00:07.662Z,5.65
2023-08-09T16:02:35.082Z,7.50
2023-08-09T16:05:04.043Z,4.03
2023-08-09T16:07:31.614Z,4.55
2023-08-09T16:09:59.649Z,5.82
2023-08-09T16:12:27.113Z,7.35
2023-08-09T16:14:54.582Z,6.50
2023-08-09T16:17:21.975Z,4.88
2023-08-09T16:19:50.255Z,5.32
2023-08-09T16:22:17.783Z,7.20
2023-08-09T16:24:45.207Z,5.07
2023-08-09T16:27:12.600Z,5.35
2023-08-09T16:29:39.998Z,6.20
2023-08-09T16:32:08.789Z,5.00
2023-08-09T16:34:36.660Z,5.80
2023-08-09T16:37:05.125Z,5.72
2023-08-09T16:39:32.780Z,6.63
2023-08-09T16:42:00.249Z,5.50
2023-08-09T16:44:27.567Z,4.22
2023-08-09T16:46:55.145Z,4.15
2023-08-09T16:49:22.606Z,6.32
2023-08-09T16:51:49.940Z,4.85
2023-08-09T16:54:18.503Z,4.90
2023-08-09T16:56:45.987Z,7.90
2023-08-09T16:59:13.533Z,4.43
2023-08-09T17:01:41.831Z,5.90
2023-08-09T17:04:09.264Z,5.70
2023-08-09T17:06:36.687Z,5.57
2023-08-09T17:09:04.407Z,5.63
2023-08-09T17:11:31.756Z,6.53
2023-08-09T17:13:59.143Z,8.07
2023-08-09T17:16:26.556Z,4.18
2023-08-09T17:18:53.984Z,4.43
2023-08-09T17:21:21.342Z,5.00
2023-08-09T17:23:48.703Z,6.78
2023-08-09T17:26:16.045Z,5.60
2023-08-09T17:28:43.523Z,6.13
2023-08-09T17:31:11.164Z,5.55
2023-08-09T17:33:38.616Z,5.63
2023-08-09T17:36:06.988Z,5.72
2023-08-09T17:38:37.268Z,4.32
2023-08-09T17:41:04.890Z,5.90
2023-08-09T17:43:32.538Z,5.65
2023-08-09T17:45:59.981Z,4.40
2023-08-09T17:48:27.365Z,4.20
2023-08-09T17:50:54.737Z,4.60
2023-08-09T17:53:23.317Z,4.85
2023-08-09T17:55:50.721Z,8.02
2023-08-09T17:58:18.281Z,4.97
2023-08-09T18:00:45.711Z,4.35
2023-08-09T18:03:13.528Z,5.40
2023-08-09T18:05:41.164Z,5.97
2023-08-09T18:08:09.306Z,6.57
2023-08-09T18:10:36.762Z,6.60
2023-08-09T18:13:04.574Z,4.50
2023-08-09T18:15:32.164Z,4.80
2023-08-09T18:17:59.666Z,8.65
2023-08-09T18:20:27.134Z,3.95
2023-08-09T18:22:54.478Z,4.80
2023-08-09T18:25:23.342Z,4.47
2023-08-09T18:27:50.722Z,4.28
2023-08-09T18:30:18.170Z,4.30
2023-08-09T18:32:46.163Z,5.50
2023-08-09T18:35:18.262Z,4.45
2023-08-09T18:37:48.467Z,6.43
2023-08-09T18:40:17.217Z,5.10
2023-08-09T18:42:46.874Z,7.93
2023-08-09T18:45:16.579Z,5.63
2023-08-09T18:47:46.123Z,6.30
2023-08-09T18:50:13.804Z,5.25
2023-08-09T18:52:41.832Z,4.53
2023-08-09T18:55:10.952Z,3.47
2023-08-09T18:57:39.897Z,3.92
2023-08-09T19:00:13.519Z,2.67
2023-08-09T19:02:45.812Z,4.53
2023-08-09T19:05:13.876Z,5.40
2023-08-09T19:07:41.339Z,4.97
2023-08-09T19:10:11.764Z,4.75
2023-08-09T19:12:39.702Z,3.00
2023-08-09T19:15:08.671Z,3.45
2023-08-09T19:17:36.329Z,3.60
2023-08-09T19:20:07.990Z,4.57
2023-08-09T19:22:35.642Z,3.28
2023-08-09T19:25:05.455Z,7.97
2023-08-09T19:27:32.998Z,4.97
2023-08-09T19:30:01.331Z,5.75
2023-08-09T19:32:29.281Z,5.50
2023-08-09T19:34:56.770Z,3.88
2023-08-09T19:37:24.191Z,3.15
2023-08-09T19:39:51.962Z,5.38
2023-08-09T19:42:19.272Z,4.53
2023-08-09T19:44:46.620Z,5.45
2023-08-09T19:47:13.965Z,4.25
2023-08-09T19:49:43.362Z,4.45
2023-08-09T19:52:12.129Z,4.60
2023-08-09T19:54:39.709Z,3.97
2023-08-09T19:57:07.388Z,3.67
2023-08-09T19:59:35.044Z,5.40
2023-08-09T20:02:03.635Z,4.30
2023-08-09T20:04:31.270Z,4.35
2023-08-09T20:06:58.616Z,5.15
2023-08-09T20:09:26.936Z,4.55
2023-08-09T20:11:54.384Z,5.38
2023-08-09T20:14:21.768Z,4.57
2023-08-09T20:16:49.234Z,5.43
2023-08-09T20:19:17.134Z,3.85
2023-08-09T20:21:44.770Z,3.75
2023-08-09T20:24:43.405Z,4.82
2023-08-09T20:27:12.922Z,4.28
2023-08-09T20:29:41.595Z,6.75
2023-08-09T20:32:09.457Z,5.55
2023-08-09T20:34:37.528Z,6.90
2023-08-09T20:37:05.055Z,6.07
2023-08-09T20:39:36.091Z,4.47
2023-08-09T20:42:03.829Z,7.20
2023-08-09T20:44:36.306Z,6.38
2023-08-09T20:47:07.036Z,6.47
2023-08-09T20:49:35.145Z,5.85
2023-08-09T20:52:04.125Z,5.45
2023-08-09T20:54:31.962Z,6.05
2023-08-09T20:56:59.868Z,4.28
2023-08-09T20:59:33.428Z,6.30
2023-08-09T21:02:00.976Z,4.93
2023-08-09T21:04:28.661Z,6.80
2023-08-09T21:06:56.117Z,3.85
2023-08-09T21:09:23.831Z,4.72
2023-08-09T21:11:51.246Z,5.85
2023-08-09T21:14:18.609Z,5.93
2023-08-09T21:16:45.977Z,7.75
2023-08-09T21:19:13.326Z,4.43
2023-08-09T21:21:41.373Z,4.95
2023-08-09T21:26:39.177Z,5.40
2023-08-09T21:29:07.736Z,5.35
2023-08-09T21:31:35.322Z,5.18
2023-08-09T21:34:03.775Z,6.18
2023-08-09T21:36:31.160Z,5.60
2023-08-09T21:38:58.612Z,5.28
2023-08-09T21:41:26.598Z,4.53
2023-08-09T21:43:53.982Z,6.05
2023-08-09T21:46:21.369Z,7.03
2023-08-09T21:48:48.715Z,5.10
2023-08-09T21:51:16.121Z,5.05
2023-08-09T21:53:43.978Z,6.63
2023-08-09T21:56:11.511Z,9.82
2023-08-09T21:58:39.037Z,6.00
2023-08-09T22:01:06.416Z,5.72
2023-08-09T22:03:33.912Z,6.88
2023-08-09T22:06:01.487Z,8.18
2023-08-09T22:08:28.927Z,4.85
2023-08-09T22:10:56.701Z,7.05
2023-08-09T22:13:24.590Z,7.95
2023-08-09T22:15:52.753Z,6.38
2023-08-09T22:18:22.398Z,4.65
2023-08-09T22:20:50.018Z,4.85
2023-08-09T22:23:17.446Z,5.70
2023-08-09T22:25:45.298Z,6.57
2023-08-09T22:28:13.443Z,9.10
2023-08-09T22:30:45.683Z,7.15
2023-08-09T22:33:13.306Z,10.95
2023-08-09T22:35:40.742Z,8.40
2023-08-09T22:38:08.161Z,6.50
2023-08-09T22:40:38.182Z,6.13
2023-08-09T22:43:06.773Z,10.60
2023-08-09T22:45:36.751Z,5.85
2023-08-09T22:48:05.502Z,8.20
2023-08-09T22:50:33.913Z,4.60
2023-08-09T22:53:01.368Z,7.63
2023-08-09T22:55:28.857Z,6.40
2023-08-09T22:57:56.253Z,10.52
2023-08-09T23:00:23.611Z,6.80
2023-08-09T23:02:51.062Z,7.57
2023-08-09T23:05:18.546Z,8.35
2023-08-09T23:07:45.896Z,6.57
2023-08-09T23:10:13.571Z,11.05
2023-08-09T23:12:40.886Z,6.68
2023-08-09T23:15:09.390Z,7.57
2023-08-09T23:17:36.913Z,9.27
2023-08-09T23:20:07.193Z,4.93
2023-08-09T23:22:34.849Z,7.55
2023-08-09T23:25:02.279Z,5.05
2023-08-09T23:27:29.654Z,6.22
2023-08-09T23:29:56.964Z,5.70
2023-08-09T23:32:24.431Z,6.22
2023-08-09T23:34:51.747Z,6.10
2023-08-09T23:37:19.110Z,8.43
2023-08-09T23:39:46.963Z,7.28
2023-08-09T23:42:14.300Z,8.85
2023-08-09T23:44:41.645Z,8.60
2023-08-09T23:47:08.996Z,7.22
2023-08-09T23:49:36.476Z,6.05
2023-08-09T23:52:04.350Z,8.77
2023-08-09T23:54:33.238Z,6.40
2023-08-09T23:57:00.562Z,7.15
2023-08-09T23:59:28.404Z,5.03
